Time;durP1;ratioP1;P1;durP2;ratioP2;P2;SDS_P1;SDS_P2;PMS_P1;PMS_P2;Temp;Humidity;BMP_temperature;BMP_pressure;BME280_temperature;BME280_humidity;BME280_pressure;Samples;Min_cycle;Max_cycle;Signal;HPM_P1;HPM_P2
2022/04/14 00:00:34;;;;;;;6.05;2.53;;;;;;;12.69;66.42;101000.84;5053805;28;20065;-85
2022/04/14 00:03:00;;;;;;;7.32;2.95;;;;;;;12.68;66.42;101007.09;5054023;28;20091;-85
2022/04/14 00:05:25;;;;;;;8.30;2.95;;;;;;;12.66;66.16;101002.88;5053865;28;20526;-86
2022/04/14 00:07:51;;;;;;;5.18;2.90;;;;;;;12.60;66.13;101004.13;5054013;28;20033;-86
2022/04/14 00:10:16;;;;;;;7.70;3.15;;;;;;;12.58;66.39;101007.78;5053854;28;20521;-85
2022/04/14 00:12:42;;;;;;;6.53;2.85;;;;;;;12.54;66.53;100996.63;5053624;28;20028;-85
2022/04/14 00:15:09;;;;;;;5.93;2.60;;;;;;;12.56;66.37;101004.41;5053482;28;20136;-85
2022/04/14 00:17:35;;;;;;;6.40;2.85;;;;;;;12.51;66.54;101004.72;5053746;28;20471;-85
2022/04/14 00:20:02;;;;;;;5.60;3.13;;;;;;;12.48;66.45;101004.94;5052227;28;20511;-85
2022/04/14 00:22:28;;;;;;;4.40;3.05;;;;;;;12.49;66.86;101004.00;5053692;28;20053;-85
2022/04/14 00:24:53;;;;;;;7.00;3.42;;;;;;;12.44;66.49;100999.03;5053566;28;20052;-86
2022/04/14 00:27:19;;;;;;;6.20;3.13;;;;;;;12.41;66.77;101003.66;5053770;28;20029;-85
2022/04/14 00:29:46;;;;;;;6.70;3.38;;;;;;;12.47;66.49;101009.34;5051783;28;20048;-86
2022/04/14 00:32:11;;;;;;;5.40;3.10;;;;;;;12.42;66.66;101010.59;5053481;28;20032;-85
2022/04/14 00:34:37;;;;;;;7.90;2.55;;;;;;;12.45;66.37;101015.69;5053380;28;20128;-85
2022/04/14 00:37:02;;;;;;;5.75;3.20;;;;;;;12.44;66.59;101013.97;5053386;28;20070;-85
2022/04/14 00:39:28;;;;;;;7.85;3.92;;;;;;;12.42;66.39;101010.59;5052954;28;20021;-85
2022/04/14 00:41:53;;;;;;;6.20;3.20;;;;;;;12.39;66.49;101011.66;5051998;28;20025;-84
2022/04/14 00:44:18;;;;;;;11.63;4.05;;;;;;;12.34;67.31;101018.16;5052882;28;20025;-85
2022/04/14 00:46:44;;;;;;;6.88;3.78;;;;;;;12.37;67.00;101020.59;5053090;28;20025;-85
2022/04/14 00:49:09;;;;;;;5.88;3.42;;;;;;;12.41;67.00;101019.47;5053189;28;20021;-85
2022/04/14 00:51:34;;;;;;;5.97;3.53;;;;;;;12.40;66.87;101025.66;5051558;28;20463;-85
2022/04/14 00:54:00;;;;;;;8.65;3.78;;;;;;;12.39;66.93;101022.19;5052998;28;20464;-85
2022/04/14 00:56:25;;;;;;;5.72;3.42;;;;;;;12.36;66.94;101021.53;5052978;28;20475;-85
2022/04/14 00:58:51;;;;;;;7.10;4.45;;;;;;;12.26;66.76;101009.00;5052942;28;20430;-85
2022/04/14 01:01:17;;;;;;;6.60;4.20;;;;;;;12.24;66.59;101021.41;5052904;28;20029;-85
2022/04/14 01:03:45;;;;;;;8.07;4.10;;;;;;;12.19;66.68;101020.03;5052722;28;20033;-85
2022/04/14 01:06:16;;;;;;;9.50;4.10;;;;;;;12.21;66.77;101024.22;5052525;28;20047;-85
2022/04/14 01:09:16;;;;;;;6.53;4.03;;;;;;;12.19;66.51;101018.22;5051387;28;20438;-85
2022/04/14 01:11:29;;;;;;;5.90;4.10;;;;;;;12.17;66.67;101030.66;5052412;28;20060;-85
2022/04/14 01:13:54;;;;;;;9.15;4.70;;;;;;;12.13;66.54;101034.41;5052614;28;20108;-85
2022/04/14 01:16:19;;;;;;;5.97;3.67;;;;;;;12.08;66.50;101028.59;5052445;28;20387;-85
2022/04/14 01:18:45;;;;;;;9.55;4.03;;;;;;;12.03;66.45;101025.44;5052398;28;20386;-85
2022/04/14 01:21:10;;;;;;;8.38;3.70;;;;;;;12.07;66.47;101034.81;5052320;28;20025;-85
2022/04/14 01:23:42;;;;;;;8.65;3.85;;;;;;;12.07;66.35;101030.38;5052328;28;20025;-85
2022/04/14 01:26:08;;;;;;;10.45;4.85;;;;;;;11.94;66.15;101026.84;5052332;28;20039;-85
2022/04/14 01:28:33;;;;;;;6.93;3.95;;;;;;;11.92;66.45;101035.78;5052336;28;20033;-85
2022/04/14 01:30:59;;;;;;;6.50;3.53;;;;;;;11.92;66.52;101028.72;5052082;28;20456;-85
2022/04/14 01:33:24;;;;;;;9.10;4.07;;;;;;;11.93;66.40;101037.47;5052313;28;20036;-85
2022/04/14 01:35:49;;;;;;;6.40;3.78;;;;;;;11.93;66.60;101029.56;5050717;28;20017;-85
2022/04/14 01:38:15;;;;;;;4.20;3.40;;;;;;;11.89;66.38;101028.94;5051986;28;20082;-85
2022/04/14 01:40:40;;;;;;;6.65;4.10;;;;;;;11.86;66.23;101019.41;5052069;28;20059;-85
2022/04/14 01:43:05;;;;;;;6.10;3.80;;;;;;;11.81;66.59;101023.28;5052111;28;20109;-85
2022/04/14 01:45:31;;;;;;;7.78;3.97;;;;;;;11.83;66.68;101030.16;5052301;28;20487;-85
2022/04/14 01:47:56;;;;;;;8.02;4.10;;;;;;;11.89;66.66;101029.78;5051858;28;20017;-85
2022/04/14 01:50:22;;;;;;;7.47;3.95;;;;;;;11.87;66.71;101036.06;5051335;28;20075;-85
2022/04/14 01:52:47;;;;;;;7.22;3.33;;;;;;;11.84;67.02;101031.81;5051901;28;20040;-85
2022/04/14 01:55:13;;;;;;;5.75;3.15;;;;;;;11.81;66.61;101034.66;5051902;28;20028;-85
2022/04/14 01:57:39;;;;;;;5.03;3.40;;;;;;;11.81;66.73;101039.91;5050471;28;20021;-85
2022/04/14 02:00:07;;;;;;;11.60;3.22;;;;;;;11.84;66.53;101033.63;5050336;28;20053;-85
2022/04/14 02:02:32;;;;;;;6.20;3.70;;;;;;;11.65;66.87;101026.88;5052117;28;20043;-86
2022/04/14 02:04:58;;;;;;;8.00;3.63;;;;;;;11.46;67.81;101032.44;5052020;28;20029;-85
2022/04/14 02:07:23;;;;;;;6.78;3.78;;;;;;;11.62;67.55;101042.00;5051757;28;20490;-86
2022/04/14 02:09:49;;;;;;;8.60;4.38;;;;;;;11.70;67.32;101045.84;5051503;28;20117;-85
2022/04/14 02:12:14;;;;;;;10.18;4.22;;;;;;;11.70;67.63;101034.47;5051485;28;20028;-87
2022/04/14 02:14:40;;;;;;;6.95;3.65;;;;;;;11.75;67.23;101044.69;5051618;28;20051;-86
2022/04/14 02:17:05;;;;;;;10.82;4.05;;;;;;;11.65;67.93;101041.81;5050247;28;20025;-86
2022/04/14 02:19:31;;;;;;;7.57;3.85;;;;;;;11.73;67.88;101042.19;5051750;28;20021;-86
2022/04/14 02:21:59;;;;;;;8.00;4.88;;;;;;;11.76;67.59;101044.63;5051480;28;20037;-86
2022/04/14 02:24:25;;;;;;;8.15;3.72;;;;;;;11.77;67.58;101045.44;5051405;28;20029;-86
2022/04/14 02:26:51;;;;;;;8.32;4.45;;;;;;;11.79;67.32;101039.19;5051477;28;20025;-86
2022/04/14 02:29:17;;;;;;;7.50;3.90;;;;;;;11.75;67.25;101035.06;5051633;28;20025;-86
2022/04/14 02:31:42;;;;;;;8.32;4.55;;;;;;;11.72;67.46;101029.97;5051393;28;20040;-86
2022/04/14 02:34:08;;;;;;;6.05;3.72;;;;;;;11.68;67.31;101026.69;5051651;28;20410;-85
2022/04/14 02:36:33;;;;;;;6.80;3.80;;;;;;;11.67;67.25;101032.03;5051510;28;20082;-86
2022/04/14 02:38:58;;;;;;;8.27;4.68;;;;;;;11.65;66.78;101028.66;5050066;28;20025;-85
2022/04/14 02:41:24;;;;;;;8.10;6.30;;;;;;;11.50;67.22;101023.41;5051355;28;20032;-85
2022/04/14 02:43:50;;;;;;;9.63;5.75;;;;;;;11.40;67.77;101021.47;5051450;28;20028;-85
2022/04/14 02:46:15;;;;;;;9.27;6.07;;;;;;;11.45;67.74;101017.63;5050144;28;20025;-86
2022/04/14 02:48:40;;;;;;;9.13;7.05;;;;;;;11.48;67.39;101020.03;5051231;28;20028;-86
2022/04/14 02:51:06;;;;;;;9.13;6.90;;;;;;;11.52;67.13;101015.44;5051348;28;20037;-85
2022/04/14 02:53:31;;;;;;;9.98;6.53;;;;;;;11.27;67.86;101018.72;5050048;28;20036;-86
2022/04/14 02:55:57;;;;;;;10.65;6.80;;;;;;;11.21;68.21;101022.56;5051633;28;20025;-85
2022/04/14 02:58:22;;;;;;;9.48;6.57;;;;;;;11.19;68.45;101026.22;5051277;28;20043;-86
2022/04/14 03:00:49;;;;;;;9.52;6.85;;;;;;;11.20;68.27;101026.16;5051246;28;20111;-85
2022/04/14 03:03:15;;;;;;;11.90;7.32;;;;;;;11.32;68.21;101025.41;5054461;28;20459;-86
2022/04/14 03:05:40;;;;;;;12.73;7.43;;;;;;;11.37;68.26;101022.47;5054978;28;20025;-87
2022/04/14 03:08:06;;;;;;;10.73;6.72;;;;;;;11.44;68.38;101029.06;5054992;28;20032;-86
2022/04/14 03:10:31;;;;;;;9.60;6.70;;;;;;;11.59;67.91;101029.03;5054658;28;20036;-86
2022/04/14 03:12:57;;;;;;;8.23;6.65;;;;;;;11.50;67.74;101028.66;5054755;28;20025;-86
2022/04/14 03:15:23;;;;;;;10.43;7.15;;;;;;;11.50;67.89;101033.94;5054839;28;20060;-86
2022/04/14 03:17:50;;;;;;;9.73;7.50;;;;;;;11.45;67.74;101030.75;5054630;28;20053;-86
2022/04/14 03:20:16;;;;;;;14.15;7.80;;;;;;;11.50;67.36;101031.31;5054520;28;20379;-86
2022/04/14 03:22:42;;;;;;;10.63;7.22;;;;;;;11.50;67.45;101025.22;5054454;28;20028;-84
2022/04/14 03:25:10;;;;;;;9.57;6.75;;;;;;;11.49;67.26;101029.63;5054574;28;20053;-84
2022/04/14 03:27:37;;;;;;;10.80;6.60;;;;;;;11.49;67.30;101036.66;5054677;28;20025;-84
2022/04/14 03:30:06;;;;;;;9.68;7.30;;;;;;;11.39;67.29;101032.91;5055001;28;20025;-86
2022/04/14 03:32:32;;;;;;;10.40;6.47;;;;;;;11.38;67.06;101034.69;5054956;28;20567;-84
2022/04/14 03:35:03;;;;;;;9.25;6.40;;;;;;;11.38;67.24;101034.69;5054752;28;20110;-85
2022/04/14 03:37:28;;;;;;;14.00;7.72;;;;;;;11.34;67.60;101033.19;5054358;28;20067;-85
2022/04/14 03:39:53;;;;;;;14.15;7.00;;;;;;;11.36;67.29;101026.06;5054185;28;20017;-85
2022/04/14 03:42:19;;;;;;;8.38;5.97;;;;;;;11.38;67.32;101039.94;5054156;28;20124;-85
2022/04/14 03:44:44;;;;;;;9.95;6.32;;;;;;;11.37;67.32;101030.34;5054275;28;20036;-85
2022/04/14 03:47:09;;;;;;;9.27;6.60;;;;;;;11.34;67.25;101035.81;5053525;28;20029;-85
2022/04/14 03:49:35;;;;;;;11.57;7.15;;;;;;;11.32;67.28;101050.84;5048645;28;20044;-85
2022/04/14 03:52:00;;;;;;;10.02;7.95;;;;;;;11.05;68.36;101069.13;5053639;28;20443;-85
2022/04/14 03:54:25;;;;;;;16.27;8.45;;;;;;;11.28;68.03;101062.50;5054041;28;20036;-85
2022/04/14 03:56:51;;;;;;;13.73;7.38;;;;;;;11.38;68.09;101066.25;5053944;28;20032;-85
2022/04/14 03:59:16;;;;;;;9.73;6.70;;;;;;;11.47;68.21;101076.22;5053553;28;20475;-85
2022/04/14 04:01:42;;;;;;;9.45;6.65;;;;;;;11.61;68.23;101071.88;5053683;28;20509;-85
2022/04/14 04:04:07;;;;;;;10.38;6.95;;;;;;;11.73;68.19;101071.13;5053750;28;20155;-85
2022/04/14 04:06:32;;;;;;;9.95;7.32;;;;;;;11.85;68.65;101059.84;5053983;28;20488;-85
2022/04/14 04:08:58;;;;;;;10.80;6.70;;;;;;;11.93;68.73;101071.69;5053729;28;20083;-85
2022/04/14 04:11:23;;;;;;;12.93;8.40;;;;;;;12.07;68.66;101063.78;5052295;28;20017;-85
2022/04/14 04:13:49;;;;;;;8.63;7.28;;;;;;;12.18;68.67;101060.44;5053314;28;20455;-85
2022/04/14 04:16:14;;;;;;;8.43;6.75;;;;;;;12.28;68.83;101057.13;5053586;28;20447;-85
2022/04/14 04:18:40;;;;;;;9.50;6.97;;;;;;;12.38;68.62;101056.50;5053450;28;20044;-85
2022/04/14 04:21:05;;;;;;;13.13;8.10;;;;;;;12.47;68.66;101045.38;5052210;28;20025;-86
2022/04/14 04:23:30;;;;;;;10.20;6.25;;;;;;;12.50;68.62;101053.09;5052202;28;20037;-85
2022/04/14 04:25:56;;;;;;;10.18;7.30;;;;;;;12.58;68.64;101058.72;5053349;28;20021;-85
2022/04/14 04:28:21;;;;;;;9.35;7.30;;;;;;;12.34;69.69;101055.03;5053209;28;20047;-86
2022/04/14 04:30:46;;;;;;;9.90;7.35;;;;;;;12.62;68.95;101070.72;5053117;28;20067;-85
2022/04/14 04:33:12;;;;;;;12.63;7.30;;;;;;;12.72;68.73;101072.72;5053160;28;20071;-85
2022/04/14 04:35:37;;;;;;;10.10;6.60;;;;;;;12.66;68.34;101076.66;5053305;28;20055;-86
2022/04/14 04:38:03;;;;;;;6.60;5.38;;;;;;;12.66;68.44;101072.22;5053197;28;20033;-86
2022/04/14 04:40:28;;;;;;;9.32;6.30;;;;;;;12.66;68.29;101072.22;5052929;28;20048;-86
2022/04/14 04:42:53;;;;;;;9.35;6.38;;;;;;;12.63;67.91;101072.41;5052962;28;20051;-85
2022/04/14 04:45:19;;;;;;;10.20;6.15;;;;;;;12.65;68.02;101081.03;5053021;28;20057;-86
2022/04/14 04:47:44;;;;;;;9.20;5.90;;;;;;;12.66;68.04;101082.75;5052993;28;20395;-85
2022/04/14 04:50:09;;;;;;;8.05;5.80;;;;;;;12.66;67.91;101082.75;5053024;28;20048;-85
2022/04/14 04:52:35;;;;;;;7.82;5.32;;;;;;;12.64;67.86;101089.91;5052922;28;20108;-85
2022/04/14 04:55:00;;;;;;;8.20;5.70;;;;;;;12.65;67.80;101085.47;5052749;28;20102;-86
2022/04/14 04:57:25;;;;;;;7.32;5.40;;;;;;;12.64;67.67;101074.09;5052729;28;20032;-86
2022/04/14 04:59:51;;;;;;;8.10;4.70;;;;;;;12.67;67.93;101073.88;5052562;28;20035;-86
2022/04/14 05:02:16;;;;;;;6.65;4.97;;;;;;;12.57;68.30;101080.72;5052534;28;20021;-85
2022/04/14 05:04:42;;;;;;;12.88;5.97;;;;;;;12.63;68.05;101072.41;5052648;28;20035;-86
2022/04/14 05:07:07;;;;;;;11.13;6.13;;;;;;;12.67;68.00;101068.63;5052487;28;20021;-86
2022/04/14 05:09:33;;;;;;;7.00;5.60;;;;;;;12.72;68.21;101062.19;5052435;28;20112;-85
2022/04/14 05:11:58;;;;;;;5.90;5.03;;;;;;;12.78;68.21;101080.25;5052335;28;20029;-85
2022/04/14 05:14:23;;;;;;;9.50;5.90;;;;;;;12.75;68.27;101070.75;5052534;28;20025;-86
2022/04/14 05:16:49;;;;;;;7.50;5.35;;;;;;;12.84;68.05;101069.31;5051081;28;20500;-86
2022/04/14 05:19:15;;;;;;;9.63;5.93;;;;;;;12.85;67.88;101074.44;5052388;28;20490;-85
2022/04/14 05:21:41;;;;;;;8.52;6.03;;;;;;;12.89;67.70;101069.81;5050991;28;20112;-86
2022/04/14 05:24:06;;;;;;;9.45;6.13;;;;;;;12.93;67.72;101073.94;5052189;28;20103;-87
2022/04/14 05:26:32;;;;;;;7.90;6.15;;;;;;;12.98;67.85;101082.41;5051241;28;20028;-85
2022/04/14 05:28:57;;;;;;;10.90;6.63;;;;;;;12.91;68.41;101073.19;5052118;28;20032;-86
2022/04/14 05:31:22;;;;;;;8.18;5.88;;;;;;;12.93;68.35;101068.66;5052059;28;20441;-86
2022/04/14 05:33:49;;;;;;;6.95;5.25;;;;;;;12.96;68.49;101072.91;5052068;28;20474;-86
2022/04/14 05:36:14;;;;;;;10.70;6.65;;;;;;;12.99;68.45;101076.16;5051978;28;20029;-86
2022/04/14 05:38:40;;;;;;;10.32;6.35;;;;;;;13.03;68.73;101075.03;5050833;28;20071;-86
2022/04/14 05:41:05;;;;;;;8.65;5.78;;;;;;;13.07;68.73;101080.91;5052000;28;20467;-86
2022/04/14 05:43:30;;;;;;;9.15;6.05;;;;;;;13.07;68.71;101081.78;5052053;28;20052;-86
2022/04/14 05:45:56;;;;;;;6.05;5.45;;;;;;;13.16;69.03;101087.38;5051980;28;20039;-86
2022/04/14 05:48:22;;;;;;;8.73;5.55;;;;;;;13.16;68.83;101085.56;5051687;28;20029;-86
2022/04/14 05:50:49;;;;;;;6.72;4.68;;;;;;;13.20;69.28;101087.06;5051758;28;20441;-86
2022/04/14 05:53:17;;;;;;;7.88;4.80;;;;;;;13.08;69.72;101083.47;5050581;28;20085;-86
2022/04/14 05:55:47;;;;;;;5.90;5.00;;;;;;;13.07;69.89;101089.69;5052202;28;20486;-86
2022/04/14 05:58:12;;;;;;;6.65;5.00;;;;;;;13.19;70.07;101095.06;5052094;28;20021;-86
2022/04/14 06:00:39;;;;;;;9.40;4.82;;;;;;;13.19;70.07;101095.94;5051557;28;20154;-86
2022/04/14 06:03:04;;;;;;;6.70;4.97;;;;;;;13.39;69.38;101099.00;5050350;28;20079;-86
2022/04/14 06:05:31;;;;;;;8.35;4.60;;;;;;;13.41;69.80;101097.97;5051682;28;20473;-86
2022/04/14 06:07:56;;;;;;;5.72;4.38;;;;;;;13.45;69.54;101096.81;5051873;28;20091;-86
2022/04/14 06:10:23;;;;;;;7.05;5.45;;;;;;;13.52;69.59;101102.50;5051638;28;20124;-86
2022/04/14 06:12:49;;;;;;;7.40;5.40;;;;;;;13.54;69.70;101099.75;5051619;28;20116;-86
2022/04/14 06:15:16;;;;;;;10.27;5.97;;;;;;;13.52;69.60;101094.56;5051946;28;20456;-86
2022/04/14 06:17:42;;;;;;;8.77;5.70;;;;;;;13.55;69.44;101112.84;5050372;28;20029;-87
2022/04/14 06:20:08;;;;;;;6.38;4.82;;;;;;;13.56;69.80;101097.84;5051511;28;20048;-87
2022/04/14 06:22:42;;;;;;;8.52;6.18;;;;;;;13.62;69.43;101105.34;5051442;28;20130;-87
2022/04/14 06:25:12;;;;;;;8.85;5.90;;;;;;;13.66;69.73;101110.31;5051652;28;20064;-85
2022/04/14 06:27:45;;;;;;;9.43;6.20;;;;;;;13.73;69.70;101108.06;5051413;28;20491;-85
2022/04/14 06:30:14;;;;;;;7.82;5.60;;;;;;;13.77;69.72;101096.34;5051322;28;20029;-86
2022/04/14 06:32:40;;;;;;;9.60;5.45;;;;;;;13.83;69.31;101098.56;5051271;28;20494;-87
2022/04/14 06:35:08;;;;;;;10.15;5.57;;;;;;;13.84;69.81;101094.97;5050360;28;20029;-87
2022/04/14 06:37:34;;;;;;;6.25;4.80;;;;;;;13.87;69.68;101093.91;5052128;28;20025;-86
2022/04/14 06:40:00;;;;;;;6.57;4.80;;;;;;;13.88;69.62;101099.09;5055215;28;20445;-85
2022/04/14 06:42:26;;;;;;;8.93;5.63;;;;;;;13.91;69.57;101097.19;5055175;28;20025;-85
2022/04/14 06:44:53;;;;;;;11.82;6.20;;;;;;;13.94;69.37;101096.94;5053767;28;20013;-86
2022/04/14 06:47:18;;;;;;;6.90;5.38;;;;;;;13.97;69.30;101102.03;5055239;28;20397;-84
2022/04/14 06:49:44;;;;;;;7.47;5.05;;;;;;;13.93;70.03;101100.56;5054570;28;20021;-85
2022/04/14 06:52:09;;;;;;;7.05;4.85;;;;;;;14.02;69.52;101097.25;5054509;28;20033;-85
2022/04/14 06:54:34;;;;;;;5.75;4.43;;;;;;;14.09;69.48;101096.69;5053587;28;20033;-86
2022/04/14 06:57:00;;;;;;;6.65;4.22;;;;;;;14.11;69.79;101108.97;5054541;28;20021;-86
2022/04/14 06:59:27;;;;;;;6.07;3.97;;;;;;;14.26;69.39;101103.41;5054987;28;20025;-86
2022/04/14 07:01:52;;;;;;;5.03;3.65;;;;;;;14.34;69.08;101109.94;5055019;28;20057;-86
2022/04/14 07:04:18;;;;;;;7.15;5.00;;;;;;;14.44;69.17;101106.50;5055084;28;20491;-86
2022/04/14 07:06:43;;;;;;;10.95;5.78;;;;;;;14.51;68.98;101111.34;5055065;28;20386;-85
2022/04/14 07:09:09;;;;;;;9.93;5.57;;;;;;;14.52;68.53;101108.59;5055035;28;20398;-86
2022/04/14 07:11:34;;;;;;;8.85;5.28;;;;;;;14.54;68.64;101111.13;5054707;28;20025;-86
2022/04/14 07:13:59;;;;;;;9.68;6.07;;;;;;;14.57;68.83;101109.13;5054596;28;20116;-85
2022/04/14 07:16:25;;;;;;;7.35;6.07;;;;;;;14.61;68.35;101115.88;5054790;28;20029;-86
2022/04/14 07:18:50;;;;;;;6.82;5.47;;;;;;;14.67;68.37;101115.44;5056072;28;20028;-87
2022/04/14 07:21:16;;;;;;;8.80;5.80;;;;;;;14.67;68.90;101120.72;5055609;28;20490;-86
2022/04/14 07:23:41;;;;;;;11.43;5.93;;;;;;;14.78;68.26;101125.19;5054769;28;20475;-84
2022/04/14 07:26:07;;;;;;;7.72;5.50;;;;;;;14.87;68.48;101128.97;5054478;28;20075;-85
2022/04/14 07:28:32;;;;;;;7.85;5.78;;;;;;;14.96;68.12;101132.72;5054135;28;20048;-85
2022/04/14 07:30:57;;;;;;;8.43;6.00;;;;;;;14.73;69.15;101131.78;5054458;28;20398;-85
2022/04/14 07:33:23;;;;;;;10.20;6.68;;;;;;;14.87;68.56;101134.25;5054461;28;20024;-85
2022/04/14 07:35:50;;;;;;;9.57;7.03;;;;;;;15.10;67.11;101129.88;5054426;28;20029;-86
2022/04/14 07:38:15;;;;;;;8.77;6.32;;;;;;;15.20;67.64;101135.31;5054345;28;20021;-86
2022/04/14 07:40:41;;;;;;;10.00;6.53;;;;;;;15.38;66.89;101133.94;5054120;28;20041;-86
2022/04/14 07:43:06;;;;;;;11.43;7.10;;;;;;;15.25;67.67;101130.53;5054168;28;20029;-86
2022/04/14 07:45:31;;;;;;;9.68;6.45;;;;;;;15.60;66.66;101140.19;5054140;28;20036;-85
2022/04/14 07:47:57;;;;;;;7.25;5.88;;;;;;;15.63;66.74;101129.38;5053636;28;20029;-86
2022/04/14 07:50:22;;;;;;;10.05;6.45;;;;;;;15.80;65.59;101128.09;5053480;28;20040;-86
2022/04/14 07:52:56;;;;;;;9.52;6.15;;;;;;;15.97;65.78;101134.69;5053807;28;20029;-86
2022/04/14 07:55:23;;;;;;;9.57;5.97;;;;;;;16.06;65.16;101128.69;5054065;28;20025;-86
2022/04/14 07:57:50;;;;;;;7.68;5.25;;;;;;;16.03;65.65;101134.22;5054264;28;20024;-85
2022/04/14 08:00:16;;;;;;;7.28;5.25;;;;;;;16.11;65.76;101130.94;5055520;28;20028;-86
2022/04/14 08:02:47;;;;;;;9.00;5.00;;;;;;;16.19;65.74;101129.41;5053901;28;20029;-86
2022/04/14 08:05:12;;;;;;;7.03;5.57;;;;;;;16.22;64.75;101137.06;5053833;28;20049;-86
2022/04/14 08:07:38;;;;;;;10.88;5.38;;;;;;;16.35;65.51;101131.66;5053696;28;20083;-85
2022/04/14 08:10:03;;;;;;;12.57;5.35;;;;;;;16.46;64.78;101141.38;5053433;28;20174;-86
2022/04/14 08:12:29;;;;;;;6.97;4.68;;;;;;;16.63;64.84;101138.19;5053478;28;20033;-86
2022/04/14 08:14:55;;;;;;;6.50;4.38;;;;;;;16.73;64.54;101132.97;5053846;28;20032;-85
2022/04/14 08:17:20;;;;;;;5.15;3.03;;;;;;;16.92;64.31;101140.25;5053649;28;20471;-85
2022/04/14 08:19:45;;;;;;;6.05;2.20;;;;;;;17.05;63.32;101138.28;5053492;28;20048;-85
2022/04/14 08:22:11;;;;;;;5.60;2.40;;;;;;;17.15;62.87;101142.81;5053546;28;20025;-86
2022/04/14 08:24:36;;;;;;;4.00;1.92;;;;;;;17.28;62.61;101145.25;5053349;28;20049;-86
2022/04/14 08:27:01;;;;;;;4.85;2.03;;;;;;;17.30;62.03;101136.22;5053667;28;20494;-86
2022/04/14 08:29:27;;;;;;;5.30;2.00;;;;;;;17.45;61.67;101142.84;5053159;28;20025;-86
2022/04/14 08:31:52;;;;;;;8.23;2.58;;;;;;;17.60;60.98;101151.34;5053123;28;20025;-86
2022/04/14 08:34:17;;;;;;;4.82;1.88;;;;;;;17.69;61.30;101146.22;5053420;28;20047;-86
2022/04/14 08:36:43;;;;;;;4.38;1.95;;;;;;;18.08;59.93;101149.06;5053314;28;20037;-86
2022/04/14 08:39:09;;;;;;;6.10;2.50;;;;;;;18.19;59.25;101149.78;5053289;28;20098;-86
2022/04/14 08:41:39;;;;;;;6.63;2.17;;;;;;;18.19;59.32;101157.75;5053269;28;20467;-86
2022/04/14 08:44:06;;;;;;;4.25;1.98;;;;;;;18.16;59.50;101155.38;5052837;28;20434;-86
2022/04/14 08:46:33;;;;;;;5.45;2.03;;;;;;;18.33;58.82;101156.53;5053097;28;20440;-86
2022/04/14 08:48:59;;;;;;;6.28;2.78;;;;;;;18.34;58.81;101152.06;5052917;28;20361;-86
2022/04/14 08:51:33;;;;;;;6.82;2.60;;;;;;;18.42;59.10;101144.25;5053075;28;20032;-86
2022/04/14 08:53:59;;;;;;;4.85;2.38;;;;;;;18.53;58.61;101152.09;5052786;28;20044;-86
2022/04/14 08:56:24;;;;;;;10.60;2.80;;;;;;;18.68;58.88;101147.22;5053051;28;20033;-86
2022/04/14 08:58:52;;;;;;;7.63;2.80;;;;;;;18.82;58.00;101151.31;5052802;28;20021;-86
2022/04/14 09:01:18;;;;;;;5.65;2.42;;;;;;;18.65;58.12;101154.66;5052505;28;20516;-86
2022/04/14 09:03:43;;;;;;;10.07;3.08;;;;;;;18.70;58.19;101155.91;5053101;28;20033;-86
2022/04/14 09:06:09;;;;;;;6.40;2.63;;;;;;;18.80;57.75;101158.63;5052592;28;20108;-87
2022/04/14 09:08:34;;;;;;;7.43;2.80;;;;;;;18.84;56.89;101162.66;5052625;28;20463;-86
2022/04/14 09:11:01;;;;;;;6.65;2.78;;;;;;;19.18;56.67;101167.56;5051556;28;20374;-86
2022/04/14 09:13:27;;;;;;;9.15;2.72;;;;;;;19.32;56.01;101168.94;5052762;28;20112;-86
2022/04/14 09:15:52;;;;;;;4.65;1.88;;;;;;;19.50;55.97;101166.38;5052645;28;20060;-87
2022/04/14 09:18:18;;;;;;;10.35;2.03;;;;;;;19.58;55.29;101162.00;5052104;28;20032;-86
2022/04/14 09:20:48;;;;;;;6.47;2.00;;;;;;;19.74;54.78;101160.59;5052229;28;20025;-87
2022/04/14 09:23:20;;;;;;;6.05;2.30;;;;;;;19.95;54.26;101163.88;5052365;28;20017;-87
2022/04/14 09:25:53;;;;;;;6.70;2.85;;;;;;;20.06;54.51;101165.50;5052308;28;20036;-86
2022/04/14 09:28:20;;;;;;;6.40;1.80;;;;;;;20.16;54.26;101163.63;5052266;28;20028;-86
2022/04/14 09:31:09;;;;;;;7.85;2.00;;;;;;;20.26;53.86;101162.72;5052047;28;20065;-86
2022/04/14 09:33:37;;;;;;;6.68;2.90;;;;;;;20.37;53.65;101170.53;5052483;28;20029;-86
2022/04/14 09:36:14;;;;;;;7.22;3.20;;;;;;;20.28;53.31;101171.41;5052117;28;20024;-85
2022/04/14 09:38:56;;;;;;;5.47;2.20;;;;;;;20.55;53.53;101175.91;5052367;28;20406;-86
2022/04/14 09:41:29;;;;;;;18.15;3.72;;;;;;;20.56;53.23;101178.41;5051985;28;20106;-86
2022/04/14 09:44:00;;;;;;;6.18;2.75;;;;;;;20.81;52.42;101181.34;5052525;28;20020;-86
2022/04/14 09:46:26;;;;;;;5.85;2.33;;;;;;;21.00;51.80;101178.53;5052254;28;20499;-86
2022/04/14 09:49:23;;;;;;;6.72;3.00;;;;;;;20.89;52.39;101181.44;5052249;28;20035;-86
2022/04/14 09:51:50;;;;;;;7.07;2.50;;;;;;;20.82;52.46;101184.88;5051256;28;20080;-86
2022/04/14 09:54:26;;;;;;;5.30;2.33;;;;;;;20.86;51.78;101188.91;5051762;28;20025;-86
2022/04/14 09:56:56;;;;;;;8.68;2.83;;;;;;;20.91;51.41;101190.16;5051908;28;20064;-86
2022/04/14 09:59:29;;;;;;;4.53;2.15;;;;;;;21.15;51.27;101186.84;5051940;28;20021;-86
2022/04/14 10:02:09;;;;;;;6.35;2.42;;;;;;;21.24;50.73;101190.41;5051866;28;20044;-86
2022/04/14 10:04:38;;;;;;;5.15;1.85;;;;;;;21.22;50.49;101195.06;5050750;28;20083;-85
2022/04/14 10:07:14;;;;;;;5.43;1.75;;;;;;;21.45;50.47;101195.44;5051728;28;20398;-86
2022/04/14 10:09:42;;;;;;;5.63;1.80;;;;;;;21.56;50.43;101195.19;5052049;28;20333;-86
2022/04/14 10:12:20;;;;;;;4.18;1.63;;;;;;;21.36;50.40;101194.50;5053106;28;20038;-86
2022/04/14 10:15:07;;;;;;;6.20;1.92;;;;;;;21.45;49.88;101190.09;5055981;28;20029;-86
2022/04/14 10:17:38;;;;;;;7.32;1.92;;;;;;;21.61;49.84;101193.88;5055795;28;20032;-86
2022/04/14 10:20:08;;;;;;;7.10;1.60;;;;;;;21.82;50.35;101190.81;5055832;28;20021;-87
2022/04/14 10:22:35;;;;;;;5.87;1.67;;;;;;;21.87;49.02;101194.69;5055554;28;20036;-87
2022/04/14 10:25:02;;;;;;;5.55;1.90;;;;;;;21.95;49.20;101189.38;5055853;28;20028;-86
2022/04/14 10:27:28;;;;;;;5.25;1.95;;;;;;;21.99;47.35;101193.41;5055684;28;20499;-86
2022/04/14 10:29:54;;;;;;;6.53;1.85;;;;;;;22.23;48.56;101199.03;5055618;28;20033;-86
2022/04/14 10:32:21;;;;;;;5.72;1.88;;;;;;;22.41;47.42;101198.97;5055724;28;20060;-86
2022/04/14 10:34:46;;;;;;;3.70;1.83;;;;;;;22.57;46.91;101194.50;5055425;28;20107;-86
2022/04/14 10:37:34;;;;;;;7.13;2.30;;;;;;;22.76;46.67;101187.16;5055619;28;20136;-87
2022/04/14 10:40:00;;;;;;;4.57;1.05;;;;;;;22.67;45.50;101190.81;5055514;28;20025;-87
2022/04/14 10:42:27;;;;;;;3.25;1.35;;;;;;;22.93;45.73;101183.50;5054048;28;20468;-87
2022/04/14 10:44:54;;;;;;;5.32;1.30;;;;;;;22.82;45.71;101189.19;5055495;28;20017;-86
2022/04/14 10:47:50;;;;;;;3.17;0.93;;;;;;;22.97;46.01;101190.22;5055345;28;20025;-86
2022/04/14 10:50:30;;;;;;;7.57;1.90;;;;;;;22.92;45.34;101189.84;5055106;28;20029;-87
2022/04/14 10:53:09;;;;;;;5.75;1.58;;;;;;;22.65;46.24;101185.66;5055118;28;20501;-87
2022/04/14 10:55:35;;;;;;;6.55;1.58;;;;;;;22.76;45.37;101179.16;5055436;28;20064;-87
2022/04/14 10:58:01;;;;;;;3.55;0.88;;;;;;;22.70;44.56;101180.63;5055355;28;20048;-87
2022/04/14 11:00:33;;;;;;;3.53;1.40;;;;;;;22.66;44.42;101175.78;5055010;28;20104;-87
2022/04/14 11:03:05;;;;;;;3.08;0.70;;;;;;;22.58;45.07;101182.78;5054850;28;20138;-87
2022/04/14 11:05:38;;;;;;;6.18;1.60;;;;;;;22.61;44.81;101178.09;5053610;28;20094;-87
2022/04/14 11:08:46;;;;;;;3.33;1.10;;;;;;;22.65;44.24;101176.78;5054959;28;20028;-86
2022/04/14 11:11:12;;;;;;;2.72;0.90;;;;;;;22.69;44.75;101183.47;5052779;28;20461;-87
2022/04/14 11:13:53;;;;;;;3.53;0.88;;;;;;;22.73;45.47;101187.53;5069077;28;20104;-85
2022/04/14 11:16:38;;;;;;;4.93;1.40;;;;;;;22.58;45.07;101185.47;5076806;28;20039;-86
2022/04/14 11:19:22;;;;;;;4.18;1.83;;;;;;;22.30;46.43;101182.22;5066271;28;20029;-87
2022/04/14 11:22:08;;;;;;;4.88;1.65;;;;;;;22.31;46.48;101185.72;5057095;28;20024;-87
2022/04/14 11:24:36;;;;;;;5.45;1.55;;;;;;;22.20;47.36;101180.66;5053481;28;20482;-87